createdAt,value
2022-08-24T00:00:24.689Z,4.07
2022-08-24T00:02:57.207Z,4.33
2022-08-24T00:05:29.600Z,4.40
2022-08-24T00:08:02.682Z,4.43
2022-08-24T00:10:34.861Z,4.80
2022-08-24T00:13:07.295Z,4.73
2022-08-24T00:15:41.110Z,5.03
2022-08-24T00:18:14.117Z,4.90
2022-08-24T00:20:46.654Z,5.03
2022-08-24T00:23:19.302Z,4.80
2022-08-24T00:25:51.985Z,4.93
2022-08-24T00:28:24.144Z,5.47
2022-08-24T00:30:56.437Z,5.17
2022-08-24T00:33:28.417Z,5.50
2022-08-24T00:36:01.659Z,8.03
2022-08-24T00:38:35.792Z,7.53
2022-08-24T00:41:08.391Z,6.80
2022-08-24T00:43:50.562Z,6.50
2022-08-24T00:46:43.325Z,7.90
2022-08-24T00:49:49.017Z,7.13
2022-08-24T00:52:41.406Z,8.30
2022-08-24T00:55:26.851Z,8.43
2022-08-24T00:58:46.127Z,8.03
2022-08-24T01:01:29.377Z,7.93
2022-08-24T01:04:03.063Z,9.27
2022-08-24T01:06:37.387Z,6.80
2022-08-24T01:09:09.555Z,11.03
2022-08-24T01:11:42.667Z,9.17
2022-08-24T01:14:17.262Z,8.10
2022-08-24T01:17:09.313Z,6.97
2022-08-24T01:20:03.829Z,6.83
2022-08-24T01:22:57.134Z,6.93
2022-08-24T01:25:48.960Z,7.10
2022-08-24T01:28:27.203Z,7.60
2022-08-24T01:31:00.534Z,6.80
2022-08-24T01:33:33.476Z,6.67
2022-08-24T01:36:28.872Z,7.10
2022-08-24T01:39:30.084Z,6.73
2022-08-24T01:42:05.810Z,7.33
2022-08-24T01:44:39.438Z,7.90
2022-08-24T01:47:15.319Z,7.63
2022-08-24T01:49:48.976Z,9.17
2022-08-24T01:52:26.814Z,8.33
2022-08-24T01:55:07.679Z,9.17
2022-08-24T01:57:43.758Z,9.03
2022-08-24T02:00:16.223Z,9.60
2022-08-24T02:02:48.690Z,9.20
2022-08-24T02:05:20.771Z,8.90
2022-08-24T02:07:53.673Z,9.47
2022-08-24T02:10:48.672Z,9.43
2022-08-24T02:13:28.770Z,9.00
2022-08-24T02:16:01.751Z,8.10
2022-08-24T02:18:35.479Z,8.77
2022-08-24T02:21:09.820Z,8.50
2022-08-24T02:23:43.035Z,10.23
2022-08-24T02:26:15.177Z,8.40
2022-08-24T02:28:47.686Z,9.20
2022-08-24T02:31:19.750Z,8.33
2022-08-24T02:33:51.890Z,8.63
2022-08-24T02:36:26.005Z,9.17
2022-08-24T02:38:59.343Z,9.50
2022-08-24T02:41:32.171Z,9.83
2022-08-24T02:44:06.541Z,8.90
2022-08-24T02:46:38.777Z,9.07
2022-08-24T02:49:12.325Z,9.37
2022-08-24T02:51:46.328Z,9.10
2022-08-24T02:54:19.874Z,10.37
2022-08-24T02:56:52.244Z,8.47
2022-08-24T02:59:25.498Z,9.27
2022-08-24T03:01:57.814Z,8.83
2022-08-24T03:04:29.863Z,9.33
2022-08-24T03:07:02.462Z,8.40
2022-08-24T03:09:34.654Z,9.13
2022-08-24T03:12:06.893Z,8.73
2022-08-24T03:14:39.196Z,9.10
2022-08-24T03:17:12.706Z,9.77
2022-08-24T03:19:44.714Z,8.03
2022-08-24T03:22:17.419Z,7.80
2022-08-24T03:24:50.716Z,8.67
2022-08-24T03:27:23.224Z,8.93
2022-08-24T03:29:55.604Z,8.90
2022-08-24T03:32:28.082Z,8.70
2022-08-24T03:35:00.148Z,7.90
2022-08-24T03:37:33.193Z,8.97
2022-08-24T03:40:07.651Z,8.73
2022-08-24T03:42:55.308Z,9.27
2022-08-24T03:45:28.310Z,10.37
2022-08-24T03:48:00.378Z,9.20
2022-08-24T03:50:32.541Z,9.30
2022-08-24T03:53:04.600Z,9.10
2022-08-24T03:55:36.744Z,9.03
2022-08-24T03:58:08.673Z,9.23
2022-08-24T04:00:42.802Z,8.53
2022-08-24T04:03:16.289Z,9.60
2022-08-24T04:05:48.369Z,8.83
2022-08-24T04:08:21.085Z,9.53
2022-08-24T04:10:55.854Z,8.17
2022-08-24T04:13:31.901Z,9.17
2022-08-24T04:16:12.919Z,9.07
2022-08-24T04:18:47.696Z,9.43
2022-08-24T04:21:25.094Z,8.37
2022-08-24T04:24:01.957Z,8.47
2022-08-24T04:26:44.843Z,9.53
2022-08-24T04:29:20.407Z,9.03
2022-08-24T04:31:53.498Z,8.77
2022-08-24T04:34:25.593Z,8.27
2022-08-24T04:36:57.814Z,8.27
2022-08-24T04:39:29.802Z,8.07
2022-08-24T04:42:03.697Z,9.17
2022-08-24T04:44:37.136Z,8.53
2022-08-24T04:47:09.480Z,8.40
2022-08-24T04:49:41.596Z,8.70
2022-08-24T04:52:13.777Z,8.80
2022-08-24T04:54:45.861Z,8.87
2022-08-24T04:57:18.568Z,8.83
2022-08-24T04:59:50.805Z,9.03
2022-08-24T05:02:27.414Z,8.70
2022-08-24T05:04:59.733Z,9.23
2022-08-24T05:07:31.914Z,9.23
2022-08-24T05:10:07.477Z,10.37
2022-08-24T05:12:42.813Z,9.00
2022-08-24T05:15:16.379Z,8.73
2022-08-24T05:17:48.667Z,9.07
2022-08-24T05:20:23.531Z,9.07
2022-08-24T05:22:58.138Z,8.40
2022-08-24T05:25:32.547Z,8.70
2022-08-24T05:28:05.282Z,11.20
2022-08-24T05:30:42.354Z,8.60
2022-08-24T05:33:14.891Z,9.87
2022-08-24T05:35:47.546Z,8.63
2022-08-24T05:38:20.007Z,8.50
2022-08-24T05:40:51.979Z,7.37
2022-08-24T05:43:24.461Z,8.97
2022-08-24T05:45:57.159Z,9.17
2022-08-24T05:48:30.006Z,9.43
2022-08-24T05:51:03.203Z,8.23
2022-08-24T05:53:36.643Z,8.00
2022-08-24T05:56:13.432Z,10.67
2022-08-24T05:58:47.689Z,9.00
2022-08-24T06:01:23.442Z,10.83
2022-08-24T06:03:58.051Z,11.80
2022-08-24T06:06:31.693Z,10.40
2022-08-24T06:09:04.295Z,9.50
2022-08-24T06:11:39.503Z,9.30
2022-08-24T06:14:15.284Z,8.37
2022-08-24T06:16:49.027Z,9.40
2022-08-24T06:19:21.416Z,9.87
2022-08-24T06:21:54.933Z,8.07
2022-08-24T06:24:46.193Z,7.90
2022-08-24T06:27:38.009Z,7.43
2022-08-24T06:30:12.540Z,8.37
2022-08-24T06:32:45.193Z,13.23
2022-08-24T06:35:17.329Z,6.97
2022-08-24T06:37:49.502Z,6.43
2022-08-24T06:40:22.145Z,7.90
2022-08-24T06:42:55.434Z,7.73
2022-08-24T06:45:32.831Z,6.57
2022-08-24T06:48:05.006Z,7.57
2022-08-24T06:50:37.123Z,6.30
2022-08-24T06:53:14.637Z,6.37
2022-08-24T06:55:56.945Z,6.87
2022-08-24T06:58:29.482Z,6.63
2022-08-24T07:01:18.394Z,7.40
2022-08-24T07:03:53.560Z,6.67
2022-08-24T07:06:25.749Z,8.40
2022-08-24T07:08:58.031Z,9.37
2022-08-24T07:11:30.392Z,6.77
2022-08-24T07:14:04.912Z,6.07
2022-08-24T07:16:37.795Z,5.27
2022-08-24T07:19:09.875Z,6.00
2022-08-24T07:21:42.685Z,5.97
2022-08-24T07:24:14.895Z,5.10
2022-08-24T07:26:47.003Z,5.70
2022-08-24T07:29:44.118Z,5.57
2022-08-24T07:32:12.349Z,6.63
2022-08-24T07:34:44.597Z,5.30
2022-08-24T07:37:17.210Z,5.17
2022-08-24T07:39:49.299Z,5.00
2022-08-24T07:42:29.732Z,4.27
2022-08-24T07:45:04.253Z,4.20
2022-08-24T07:47:50.848Z,6.77
2022-08-24T07:50:29.944Z,4.50
2022-08-24T07:53:02.283Z,5.43
2022-08-24T07:55:34.616Z,5.20
2022-08-24T07:58:26.275Z,3.90
2022-08-24T08:00:59.511Z,5.73
2022-08-24T08:03:34.122Z,5.00
2022-08-24T08:06:12.555Z,3.30
2022-08-24T08:08:49.280Z,6.50
2022-08-24T08:11:21.718Z,4.20
2022-08-24T08:13:54.423Z,3.47
2022-08-24T08:16:27.563Z,3.43
2022-08-24T08:19:09.384Z,4.20
2022-08-24T08:22:06.688Z,3.03
2022-08-24T08:24:58.499Z,3.00
2022-08-24T08:27:31.034Z,3.10
2022-08-24T08:30:06.351Z,3.33
2022-08-24T08:32:39.422Z,3.33
2022-08-24T08:35:11.904Z,2.47
2022-08-24T08:37:44.576Z,4.17
2022-08-24T08:40:28.798Z,3.33
2022-08-24T08:43:24.580Z,2.50
2022-08-24T08:46:17.595Z,2.60
2022-08-24T08:49:31.011Z,2.40
2022-08-24T08:52:33.627Z,2.63
2022-08-24T08:55:53.458Z,2.40
2022-08-24T08:59:12.184Z,2.30
2022-08-24T09:02:38.922Z,3.00
2022-08-24T09:06:02.405Z,2.60
2022-08-24T09:09:06.685Z,2.53
2022-08-24T09:12:27.256Z,2.10
2022-08-24T09:15:34.067Z,7.47
2022-08-24T09:18:48.082Z,2.60
2022-08-24T09:22:00.219Z,2.63
2022-08-24T09:24:52.613Z,2.67
2022-08-24T09:27:42.178Z,2.73
2022-08-24T09:31:09.712Z,2.20
2022-08-24T09:34:10.422Z,13.77
2022-08-24T09:37:29.018Z,2.20
2022-08-24T09:40:33.393Z,2.43
2022-08-24T09:43:48.929Z,2.10
2022-08-24T09:47:00.641Z,2.30
2022-08-24T09:50:07.794Z,2.00
2022-08-24T09:53:14.833Z,2.43
2022-08-24T09:56:12.548Z,2.47
2022-08-24T09:59:18.584Z,2.33
2022-08-24T10:02:48.478Z,2.27
2022-08-24T10:05:46.601Z,1.83
2022-08-24T10:08:40.398Z,2.07
2022-08-24T10:12:06.103Z,3.77
2022-08-24T10:15:26.494Z,2.27
2022-08-24T10:18:05.811Z,2.20
2022-08-24T10:21:29.261Z,2.37
2022-08-24T10:24:57.405Z,2.23
2022-08-24T10:27:44.209Z,2.30
2022-08-24T10:31:01.544Z,2.40
2022-08-24T10:33:54.369Z,2.00
2022-08-24T10:37:17.229Z,3.30
2022-08-24T10:40:21.249Z,2.03
2022-08-24T10:43:43.013Z,2.33
2022-08-24T10:47:19.986Z,1.83
2022-08-24T10:50:39.368Z,2.80
2022-08-24T10:53:29.147Z,2.10
2022-08-24T10:56:11.889Z,3.47
2022-08-24T10:58:59.614Z,3.00
2022-08-24T11:02:05.011Z,2.30
2022-08-24T11:05:10.735Z,2.73
2022-08-24T11:08:18.199Z,2.70
2022-08-24T11:11:13.696Z,4.33
2022-08-24T11:14:09.671Z,2.20
2022-08-24T11:17:17.033Z,2.43
2022-08-24T11:19:52.493Z,5.77
2022-08-24T11:22:40.907Z,1.87
2022-08-24T11:25:33.394Z,2.43
2022-08-24T11:28:24.320Z,10.97
2022-08-24T11:31:35.969Z,2.20
2022-08-24T11:34:16.496Z,2.13
2022-08-24T11:37:02.366Z,2.10
2022-08-24T11:39:37.460Z,2.37
2022-08-24T11:42:09.892Z,2.20
2022-08-24T11:45:07.572Z,2.40
2022-08-24T11:48:27.983Z,2.43
2022-08-24T11:52:00.240Z,2.03
2022-08-24T11:55:24.589Z,1.90
2022-08-24T11:58:17.250Z,2.33
2022-08-24T12:01:29.829Z,1.80
2022-08-24T12:04:23.389Z,2.10
2022-08-24T12:07:20.726Z,2.80
2022-08-24T12:10:10.439Z,1.90
2022-08-24T12:13:27.253Z,2.80
2022-08-24T12:16:40.122Z,2.07
2022-08-24T12:19:36.254Z,2.07
2022-08-24T12:22:15.902Z,2.20
2022-08-24T12:24:57.217Z,2.47
2022-08-24T12:27:35.363Z,3.10
2022-08-24T12:30:13.507Z,2.30
2022-08-24T12:32:53.931Z,1.80
2022-08-24T12:35:37.996Z,2.40
2022-08-24T12:38:17.503Z,1.97
2022-08-24T12:41:17.766Z,2.23
2022-08-24T12:44:16.670Z,2.87
2022-08-24T12:46:54.331Z,2.10
2022-08-24T12:49:56.087Z,4.50
2022-08-24T12:53:02.079Z,1.63
2022-08-24T12:56:05.503Z,2.13
2022-08-24T12:59:12.462Z,3.40
2022-08-24T13:02:19.737Z,1.70
2022-08-24T13:05:31.259Z,1.87
2022-08-24T13:08:21.520Z,1.77
2022-08-24T13:11:33.300Z,1.90
2022-08-24T13:14:18.449Z,1.80
2022-08-24T13:16:56.366Z,2.10
2022-08-24T13:20:06.267Z,1.97
2022-08-24T13:23:11.999Z,1.97
2022-08-24T13:25:51.177Z,1.77
2022-08-24T13:28:37.787Z,4.27
2022-08-24T13:31:15.471Z,2.27
2022-08-24T13:34:06.639Z,1.67
2022-08-24T13:37:17.908Z,4.20
2022-08-24T13:40:28.228Z,2.43
2022-08-24T13:43:12.286Z,2.50
2022-08-24T13:46:01.122Z,2.03
2022-08-24T13:49:00.218Z,2.00
2022-08-24T13:52:10.168Z,2.57
2022-08-24T13:55:18.205Z,2.20
2022-08-24T13:58:43.382Z,2.30
2022-08-24T14:01:44.355Z,1.97
2022-08-24T14:04:58.026Z,1.87
2022-08-24T14:08:27.898Z,7.13
2022-08-24T14:11:35.005Z,1.67
2022-08-24T14:15:05.209Z,1.93
2022-08-24T14:17:56.935Z,3.37
2022-08-24T14:21:05.631Z,2.00
2022-08-24T14:23:52.089Z,2.30
2022-08-24T14:26:40.166Z,1.93
2022-08-24T14:29:53.975Z,2.90
2022-08-24T14:32:58.198Z,1.93
2022-08-24T14:35:53.719Z,2.07
2022-08-24T14:38:56.428Z,2.27
2022-08-24T14:41:52.601Z,1.93
2022-08-24T14:44:47.395Z,2.33
2022-08-24T14:47:51.233Z,2.43
2022-08-24T14:51:08.129Z,4.50
2022-08-24T14:54:12.092Z,2.40
2022-08-24T14:57:26.925Z,1.90
2022-08-24T15:00:22.324Z,1.77
2022-08-24T15:03:33.927Z,2.00
2022-08-24T15:06:50.117Z,2.13
2022-08-24T15:09:35.436Z,2.33
2022-08-24T15:12:35.983Z,4.23
2022-08-24T15:15:42.850Z,1.83
2022-08-24T15:18:42.775Z,2.23
2022-08-24T15:21:41.773Z,3.07
2022-08-24T15:24:50.624Z,2.33
2022-08-24T15:27:52.563Z,2.63
2022-08-24T15:30:34.009Z,2.50
2022-08-24T15:33:18.463Z,2.53
2022-08-24T15:36:15.663Z,2.70
2022-08-24T15:38:49.382Z,2.57
2022-08-24T15:41:38.151Z,2.30
2022-08-24T15:44:21.396Z,2.20
2022-08-24T15:47:03.667Z,2.40
2022-08-24T15:50:01.509Z,2.37
2022-08-24T15:52:43.361Z,3.30
2022-08-24T15:55:31.838Z,2.20
2022-08-24T15:58:34.287Z,2.47
2022-08-24T16:01:29.860Z,2.10
2022-08-24T16:04:46.558Z,2.70
2022-08-24T16:07:25.789Z,2.53
2022-08-24T16:10:12.860Z,2.30
2022-08-24T16:12:48.004Z,2.27
2022-08-24T16:15:22.958Z,2.33
2022-08-24T16:18:17.038Z,2.10
2022-08-24T16:20:51.057Z,2.67
2022-08-24T16:23:25.216Z,2.10
2022-08-24T16:26:33.481Z,5.60
2022-08-24T16:29:37.600Z,2.43
2022-08-24T16:32:30.179Z,2.37
2022-08-24T16:35:25.324Z,2.10
2022-08-24T16:37:57.686Z,2.10
2022-08-24T16:40:33.190Z,3.30
2022-08-24T16:43:07.326Z,2.17
2022-08-24T16:45:41.036Z,2.20
2022-08-24T16:48:13.879Z,2.50
2022-08-24T16:50:50.609Z,2.60
2022-08-24T16:53:24.479Z,1.90
2022-08-24T16:55:58.206Z,2.70
2022-08-24T16:58:33.545Z,2.10
2022-08-24T17:01:06.401Z,2.30
2022-08-24T17:03:38.444Z,2.00
2022-08-24T17:06:12.511Z,2.10
2022-08-24T17:08:48.364Z,2.30
2022-08-24T17:11:20.660Z,2.07
2022-08-24T17:13:52.907Z,2.70
2022-08-24T17:16:25.075Z,2.37
2022-08-24T17:18:58.881Z,2.13
2022-08-24T17:21:34.367Z,2.27
2022-08-24T17:24:10.398Z,2.10
2022-08-24T17:26:44.984Z,2.10
2022-08-24T17:29:36.293Z,2.50
2022-08-24T17:32:08.587Z,2.80
2022-08-24T17:34:41.668Z,2.60
2022-08-24T17:37:14.166Z,2.40
2022-08-24T17:39:55.751Z,2.00
2022-08-24T17:45:23.101Z,2.43
2022-08-24T17:47:55.439Z,2.20
2022-08-24T17:50:28.717Z,2.10
2022-08-24T17:53:01.594Z,2.43
2022-08-24T17:55:34.886Z,3.57
2022-08-24T17:58:07.367Z,2.10
2022-08-24T18:00:40.203Z,2.20
2022-08-24T18:03:16.505Z,2.23
2022-08-24T18:05:49.319Z,2.33
2022-08-24T18:08:21.494Z,2.00
2022-08-24T18:10:54.064Z,2.20
2022-08-24T18:13:26.139Z,2.40
2022-08-24T18:15:58.894Z,2.00
2022-08-24T18:18:31.546Z,2.13
2022-08-24T18:21:04.054Z,2.60
2022-08-24T18:23:37.966Z,2.70
2022-08-24T18:26:21.825Z,2.73
2022-08-24T18:29:07.873Z,2.60
2022-08-24T18:31:44.895Z,2.20
2022-08-24T18:34:21.205Z,2.07
2022-08-24T18:36:53.892Z,2.27
2022-08-24T18:39:27.673Z,2.10
2022-08-24T18:42:03.188Z,2.67
2022-08-24T18:44:39.094Z,2.87
2022-08-24T18:47:11.706Z,2.63
2022-08-24T18:49:43.778Z,2.47
2022-08-24T18:52:19.516Z,2.70
2022-08-24T18:54:52.300Z,2.60
2022-08-24T18:57:24.842Z,2.47
2022-08-24T18:59:57.168Z,2.70
2022-08-24T19:02:35.343Z,3.40
2022-08-24T19:05:18.974Z,2.93
2022-08-24T19:07:54.749Z,2.63
2022-08-24T19:10:29.154Z,2.87
2022-08-24T19:13:18.225Z,2.60
2022-08-24T19:15:51.768Z,3.10
2022-08-24T19:18:23.973Z,2.67
2022-08-24T19:20:58.612Z,4.60
2022-08-24T19:23:36.056Z,2.70
2022-08-24T19:26:08.681Z,3.40
2022-08-24T19:28:41.391Z,3.03
2022-08-24T19:31:14.212Z,3.53
2022-08-24T19:33:49.737Z,3.10
2022-08-24T19:36:23.035Z,2.87
2022-08-24T19:38:56.392Z,2.80
2022-08-24T19:41:36.954Z,2.77
2022-08-24T19:44:31.581Z,3.50
2022-08-24T19:47:24.388Z,3.20
2022-08-24T19:49:56.651Z,3.37
2022-08-24T19:52:32.136Z,2.90
2022-08-24T19:55:07.426Z,2.80
2022-08-24T19:57:54.639Z,4.73
2022-08-24T20:00:48.296Z,2.60
2022-08-24T20:03:41.989Z,2.90
2022-08-24T20:06:15.602Z,2.60
2022-08-24T20:08:50.004Z,2.83
2022-08-24T20:11:25.497Z,3.20
2022-08-24T20:13:58.496Z,3.33
2022-08-24T20:16:42.254Z,3.00
2022-08-24T20:19:14.684Z,3.20
2022-08-24T20:21:47.988Z,3.20
2022-08-24T20:24:20.660Z,4.70
2022-08-24T20:26:53.185Z,3.43
2022-08-24T20:29:25.790Z,2.90
2022-08-24T20:32:02.492Z,5.07
2022-08-24T20:34:36.561Z,3.07
2022-08-24T20:37:09.810Z,3.13
2022-08-24T20:39:46.749Z,3.07
2022-08-24T20:42:21.395Z,3.23
2022-08-24T20:44:55.834Z,3.17
2022-08-24T20:47:29.037Z,3.57
2022-08-24T20:50:01.371Z,3.23
2022-08-24T20:52:33.991Z,4.30
2022-08-24T20:55:07.515Z,3.27
2022-08-24T20:57:49.164Z,3.07
2022-08-24T21:00:24.503Z,3.10
2022-08-24T21:02:58.200Z,3.27
2022-08-24T21:05:30.451Z,3.23
2022-08-24T21:08:03.344Z,3.00
2022-08-24T21:10:36.624Z,3.50
2022-08-24T21:13:09.358Z,3.00
2022-08-24T21:15:41.890Z,4.10
2022-08-24T21:18:14.554Z,4.60
2022-08-24T21:21:03.354Z,3.60
2022-08-24T21:23:36.845Z,3.10
2022-08-24T21:26:14.181Z,3.90
2022-08-24T21:28:46.805Z,3.33
2022-08-24T21:31:20.321Z,3.30
2022-08-24T21:34:10.982Z,3.70
2022-08-24T21:37:03.113Z,3.43
2022-08-24T21:39:42.960Z,6.43
2022-08-24T21:42:17.446Z,3.20
2022-08-24T21:44:52.719Z,3.40
2022-08-24T21:47:24.863Z,3.60
2022-08-24T21:49:58.158Z,4.20
2022-08-24T21:52:30.312Z,3.50
2022-08-24T21:55:03.475Z,3.70
2022-08-24T21:57:36.108Z,3.30
2022-08-24T22:00:13.343Z,3.53
2022-08-24T22:02:48.700Z,3.60
2022-08-24T22:05:21.332Z,4.03
2022-08-24T22:07:53.481Z,3.93
2022-08-24T22:10:26.303Z,3.90
2022-08-24T22:13:03.356Z,3.60
2022-08-24T22:15:36.924Z,3.60
2022-08-24T22:18:09.218Z,3.13
2022-08-24T22:20:41.290Z,3.50
2022-08-24T22:23:13.398Z,5.23
2022-08-24T22:25:49.971Z,3.20
2022-08-24T22:28:24.462Z,4.30
2022-08-24T22:30:56.671Z,3.53
2022-08-24T22:33:29.122Z,4.17
2022-08-24T22:36:01.228Z,3.30
2022-08-24T22:38:33.756Z,5.00
2022-08-24T22:41:06.476Z,4.20
2022-08-24T22:43:57.485Z,3.83
2022-08-24T22:47:00.813Z,4.10
2022-08-24T22:49:40.272Z,4.10
2022-08-24T22:52:14.896Z,3.97
2022-08-24T22:54:47.900Z,3.87
2022-08-24T22:57:20.219Z,6.00
2022-08-24T22:59:52.348Z,4.20
2022-08-24T23:02:24.574Z,3.90
2022-08-24T23:04:57.380Z,4.23
2022-08-24T23:07:29.689Z,3.90
2022-08-24T23:10:05.987Z,4.37
2022-08-24T23:12:38.912Z,4.13
2022-08-24T23:15:11.468Z,4.50
2022-08-24T23:17:43.704Z,4.00
2022-08-24T23:20:16.070Z,4.37
2022-08-24T23:22:49.910Z,4.30
2022-08-24T23:25:22.026Z,4.67
2022-08-24T23:27:54.089Z,4.40
2022-08-24T23:30:26.269Z,5.10
2022-08-24T23:32:58.970Z,3.63
2022-08-24T23:35:31.439Z,5.70
2022-08-24T23:38:03.669Z,4.87
2022-08-24T23:40:41.209Z,4.10
2022-08-24T23:43:13.557Z,4.10
2022-08-24T23:45:45.628Z,4.20
2022-08-24T23:48:17.663Z,5.20
2022-08-24T23:50:49.838Z,4.70
2022-08-24T23:53:23.906Z,4.73
2022-08-24T23:56:07.679Z,4.37
2022-08-24T23:58:42.233Z,4.60
